createdAt,value
2023-01-19T00:00:05.126Z,97534.91
2023-01-19T00:03:20.794Z,97534.91
2023-01-19T00:06:33.051Z,97542.05
2023-01-19T00:09:45.415Z,97535.13
2023-01-19T00:12:58.873Z,97540.73
2023-01-19T00:16:12.625Z,97543.09
2023-01-19T00:19:24.675Z,97540.36
2023-01-19T00:22:36.941Z,97551.91
2023-01-19T00:28:49.812Z,97552.25
2023-01-19T00:32:02.264Z,97548.11
2023-01-19T00:35:15.363Z,97542.88
2023-01-19T00:38:27.375Z,97559.17
2023-01-19T00:44:39.884Z,97557.23
2023-01-19T00:47:55.029Z,97553.22
2023-01-19T00:51:06.982Z,97553.69
2023-01-19T00:54:22.850Z,97543.81
2023-01-19T00:57:36.133Z,97547.98
2023-01-19T01:09:48.715Z,97544.19
2023-01-19T01:13:21.341Z,97542.28
2023-01-19T01:16:16.599Z,97540.38
2023-01-19T01:19:28.846Z,97534.31
2023-01-19T01:22:40.778Z,97535.14
2023-01-19T01:34:52.909Z,97526.56
2023-01-19T01:56:59.446Z,97509.09
2023-01-19T02:00:15.654Z,97504.83
2023-01-19T02:25:07.887Z,97512.33
2023-01-19T02:28:20.971Z,97499.83
2023-01-19T02:34:33.409Z,97495.67
2023-01-19T02:37:46.845Z,97499.94
2023-01-19T02:44:01.929Z,97493.77
2023-01-19T02:47:13.928Z,97493.52
2023-01-19T02:50:48.979Z,97503.27
2023-01-19T02:54:40.392Z,97517.32
2023-01-19T02:58:04.185Z,97510.19
2023-01-19T03:01:22.763Z,97519.10
2023-01-19T03:04:43.743Z,97516.48
2023-01-19T03:08:07.766Z,97518.97
2023-01-19T03:11:21.599Z,97523.98
2023-01-19T03:17:37.183Z,97517.17
2023-01-19T03:20:50.343Z,97522.19
2023-01-19T03:24:07.243Z,97527.77
2023-01-19T03:30:27.159Z,97522.78
2023-01-19T03:33:42.841Z,97510.05
2023-01-19T03:36:59.558Z,97514.35
2023-01-19T03:40:21.879Z,97531.35
2023-01-19T03:43:36.472Z,97534.91
2023-01-19T03:46:52.805Z,97547.77
2023-01-19T03:50:09.153Z,97539.66
2023-01-19T03:53:24.531Z,97545.39
2023-01-19T03:59:36.681Z,97544.67
2023-01-19T04:02:48.848Z,97542.55
2023-01-19T04:06:02.269Z,97553.82
2023-01-19T04:09:14.477Z,97550.86
2023-01-19T04:12:26.397Z,97550.50
2023-01-19T04:15:39.471Z,97552.02
2023-01-19T04:18:52.829Z,97544.08
2023-01-19T04:22:04.961Z,97512.41
2023-01-19T04:25:18.200Z,97508.95
2023-01-19T04:28:30.505Z,97505.26
2023-01-19T04:31:42.515Z,97503.84
2023-01-19T04:34:54.614Z,97506.71
2023-01-19T04:38:06.736Z,97502.31
2023-01-19T04:55:16.217Z,97558.25
2023-01-19T05:01:28.379Z,97564.29
2023-01-19T05:04:40.688Z,97568.47
2023-01-19T05:13:52.945Z,97568.94
2023-01-19T05:17:04.941Z,97573.95
2023-01-19T05:20:21.653Z,97580.71
2023-01-19T05:23:33.859Z,97577.03
2023-01-19T05:26:46.165Z,97596.07
2023-01-19T05:29:58.052Z,97605.83
2023-01-19T05:33:10.176Z,97599.41
2023-01-19T05:36:22.171Z,97601.53
2023-01-19T05:39:35.582Z,97613.56
2023-01-19T05:42:48.242Z,97621.28
2023-01-19T05:46:00.554Z,97618.92
2023-01-19T05:49:13.356Z,97624.16
2023-01-19T05:52:26.013Z,97622.13
2023-01-19T05:55:38.189Z,97618.55
2023-01-19T05:58:50.190Z,97624.03
2023-01-19T06:02:02.921Z,97632.81
2023-01-19T06:05:16.961Z,97639.14
2023-01-19T06:08:29.196Z,97644.13
2023-01-19T06:11:41.466Z,97648.39
2023-01-19T06:14:53.935Z,97628.04
2023-01-19T06:18:06.913Z,97624.83
2023-01-19T06:21:19.022Z,97630.28
2023-01-19T06:24:31.522Z,97635.76
2023-01-19T06:27:44.079Z,97639.42
2023-01-19T06:30:58.816Z,97667.61
2023-01-19T06:34:11.010Z,97675.58
2023-01-19T06:37:23.157Z,97682.70
2023-01-19T06:40:35.319Z,97695.27
2023-01-19T06:43:47.437Z,97682.61
2023-01-19T06:47:15.219Z,97705.13
2023-01-19T06:50:16.398Z,97702.00
2023-01-19T06:53:30.228Z,97700.50
2023-01-19T06:56:42.611Z,97699.63
2023-01-19T06:59:54.757Z,97713.42
2023-01-19T07:03:06.927Z,97723.20
2023-01-19T07:06:19.530Z,97719.38
2023-01-19T07:09:31.733Z,97718.09
2023-01-19T07:12:46.294Z,97712.70
2023-01-19T07:15:58.299Z,97729.07
2023-01-19T07:19:10.918Z,97731.94
2023-01-19T07:22:23.013Z,97726.90
2023-01-19T07:25:35.333Z,97726.78
2023-01-19T07:28:48.206Z,97711.49
2023-01-19T07:32:01.081Z,97734.50
2023-01-19T07:35:14.642Z,97724.48
2023-01-19T07:38:27.232Z,97724.48
2023-01-19T07:41:39.642Z,97718.09
2023-01-19T07:44:52.159Z,97708.69
2023-01-19T07:48:04.374Z,97719.50
2023-01-19T07:51:19.080Z,97708.39
2023-01-19T07:54:31.680Z,97700.84
2023-01-19T07:57:44.094Z,97704.17
2023-01-19T08:00:56.958Z,97706.91
2023-01-19T08:04:10.735Z,97723.60
2023-01-19T08:07:23.035Z,97712.54
2023-01-19T08:10:36.140Z,97715.55
2023-01-19T08:13:48.538Z,97731.48
2023-01-19T08:17:01.078Z,97735.52
2023-01-19T08:20:17.437Z,97743.03
2023-01-19T08:23:29.792Z,97753.58
2023-01-19T08:26:42.818Z,97746.81
2023-01-19T08:29:55.145Z,97741.58
2023-01-19T08:33:11.132Z,97746.41
2023-01-19T08:36:25.056Z,97743.07
2023-01-19T08:39:37.480Z,97748.70
2023-01-19T08:42:49.686Z,97745.97
2023-01-19T08:46:01.879Z,97735.27
2023-01-19T08:49:14.560Z,97737.45
2023-01-19T08:52:26.827Z,97739.25
2023-01-19T08:55:40.880Z,97734.11
2023-01-19T08:59:07.656Z,97741.79
2023-01-19T09:02:07.533Z,97725.29
2023-01-19T09:05:20.263Z,97716.72
2023-01-19T09:08:33.027Z,97717.33
2023-01-19T09:11:45.379Z,97711.41
2023-01-19T09:14:57.538Z,97719.14
2023-01-19T09:18:13.092Z,97728.39
2023-01-19T09:21:25.330Z,97734.34
2023-01-19T09:24:37.431Z,97741.06
2023-01-19T09:27:49.542Z,97741.45
2023-01-19T09:31:01.840Z,97740.67
2023-01-19T09:34:14.845Z,97739.72
2023-01-19T09:37:27.331Z,97740.55
2023-01-19T09:40:42.099Z,97742.72
2023-01-19T09:43:59.132Z,97744.28
2023-01-19T09:47:19.320Z,97746.06
2023-01-19T09:50:38.227Z,97736.44
2023-01-19T09:54:06.634Z,97736.31
2023-01-19T09:57:20.056Z,97729.06
2023-01-19T10:00:34.874Z,97723.56
2023-01-19T10:03:49.027Z,97714.24
2023-01-19T10:07:15.568Z,97714.91
2023-01-19T10:10:31.773Z,97724.20
2023-01-19T10:13:48.307Z,97722.57
2023-01-19T10:17:08.993Z,97706.88
2023-01-19T10:20:27.434Z,97708.10
2023-01-19T10:23:51.116Z,97704.06
2023-01-19T10:27:03.995Z,97695.95
2023-01-19T10:30:26.128Z,97681.53
2023-01-19T10:33:39.098Z,97690.13
2023-01-19T10:36:53.958Z,97694.77
2023-01-19T10:40:15.877Z,97691.95
2023-01-19T10:43:50.861Z,97682.87
2023-01-19T10:47:05.524Z,97690.26
2023-01-19T10:50:34.403Z,97675.53
2023-01-19T10:53:50.831Z,97679.38
2023-01-19T10:57:06.908Z,97680.06
2023-01-19T11:00:36.575Z,97680.31
2023-01-19T11:03:49.165Z,97676.76
2023-01-19T11:07:16.404Z,97681.49
2023-01-19T11:10:33.389Z,97674.02
2023-01-19T11:13:46.786Z,97661.52
2023-01-19T11:17:02.094Z,97660.33
2023-01-19T11:20:25.084Z,97662.86
2023-01-19T11:23:42.964Z,97654.63
2023-01-19T11:27:02.022Z,97645.81
2023-01-19T11:30:24.685Z,97644.88
2023-01-19T11:33:45.032Z,97650.57
2023-01-19T11:37:06.683Z,97652.00
2023-01-19T11:40:22.384Z,97644.86
2023-01-19T11:43:48.234Z,97644.64
2023-01-19T11:46:55.105Z,97653.09
2023-01-19T11:50:09.113Z,97666.06
2023-01-19T11:53:29.348Z,97660.69
2023-01-19T11:56:43.065Z,97641.42
2023-01-19T11:59:55.884Z,97650.84
2023-01-19T12:03:15.126Z,97648.44
2023-01-19T12:06:30.726Z,97633.91
2023-01-19T12:09:49.810Z,97628.92
2023-01-19T12:13:04.769Z,97632.39
2023-01-19T12:16:23.758Z,97634.88
2023-01-19T12:19:43.726Z,97637.38
2023-01-19T12:23:02.335Z,97651.78
2023-01-19T12:26:35.510Z,97657.95
2023-01-19T12:29:48.694Z,97655.46
2023-01-19T12:33:33.396Z,97664.16
2023-01-19T12:36:46.741Z,97672.02
2023-01-19T12:39:59.532Z,97665.09
2023-01-19T12:43:18.511Z,97663.10
2023-01-19T12:46:36.057Z,97670.83
2023-01-19T12:49:52.168Z,97671.05
2023-01-19T12:53:09.255Z,97672.73
2023-01-19T12:56:23.215Z,97676.07
2023-01-19T12:59:37.366Z,97670.72
2023-01-19T13:02:55.573Z,97671.52
2023-01-19T13:06:08.725Z,97670.80
2023-01-19T13:09:38.753Z,97667.22
2023-01-19T13:13:17.360Z,97673.42
2023-01-19T13:17:19.963Z,97669.84
2023-01-19T13:20:37.642Z,97671.48
2023-01-19T13:24:02.767Z,97679.58
2023-01-19T13:27:20.096Z,97681.48
2023-01-19T13:30:37.387Z,97678.81
2023-01-19T13:33:58.484Z,97681.41
2023-01-19T13:37:11.937Z,97686.13
2023-01-19T13:40:32.205Z,97696.71
2023-01-19T13:43:45.529Z,97700.17
2023-01-19T13:47:00.620Z,97711.11
2023-01-19T13:50:24.810Z,97716.47
2023-01-19T13:53:37.531Z,97719.08
2023-01-19T13:56:55.763Z,97732.88
2023-01-19T14:00:24.512Z,97735.74
2023-01-19T14:03:36.827Z,97740.41
2023-01-19T14:06:54.621Z,97744.59
2023-01-19T14:10:19.998Z,97747.80
2023-01-19T14:13:35.285Z,97749.97
2023-01-19T14:16:47.604Z,97755.69
2023-01-19T14:20:01.540Z,97753.80
2023-01-19T14:23:51.245Z,97745.94
2023-01-19T14:27:22.872Z,97742.93
2023-01-19T14:30:36.803Z,97749.97
2023-01-19T14:33:54.085Z,97753.13
2023-01-19T14:37:08.049Z,97757.03
2023-01-19T14:40:28.434Z,97753.94
2023-01-19T14:43:40.929Z,97759.49
2023-01-19T14:46:55.317Z,97759.16
2023-01-19T14:50:22.608Z,97761.55
2023-01-19T14:53:36.630Z,97762.27
2023-01-19T14:56:48.654Z,97765.61
2023-01-19T15:00:01.631Z,97762.98
2023-01-19T15:03:15.322Z,97770.11
2023-01-19T15:06:30.039Z,97773.09
2023-01-19T15:09:42.292Z,97776.63
2023-01-19T15:12:55.835Z,97787.09
2023-01-19T15:16:08.971Z,97784.80
2023-01-19T15:19:23.480Z,97788.39
2023-01-19T15:22:35.957Z,97795.50
2023-01-19T15:25:48.901Z,97797.16
2023-01-19T15:29:01.732Z,97798.61
2023-01-19T15:32:18.238Z,97805.73
2023-01-19T15:35:31.782Z,97805.53
2023-01-19T15:38:44.383Z,97807.42
2023-01-19T15:41:56.705Z,97807.42
2023-01-19T15:45:13.357Z,97812.86
2023-01-19T15:48:25.916Z,97817.16
2023-01-19T15:51:38.254Z,97810.36
2023-01-19T15:54:50.341Z,97818.33
2023-01-19T15:58:05.546Z,97822.71
2023-01-19T16:01:21.387Z,97820.65
2023-01-19T16:04:34.033Z,97817.31
2023-01-19T16:07:46.045Z,97820.65
2023-01-19T16:10:58.223Z,97817.72
2023-01-19T16:14:10.248Z,97826.38
2023-01-19T16:17:22.330Z,97828.98
2023-01-19T16:20:34.451Z,97825.64
2023-01-19T16:23:46.853Z,97822.30
2023-01-19T16:26:59.875Z,97829.22
2023-01-19T16:30:19.376Z,97832.56
2023-01-19T16:33:31.464Z,97837.68
2023-01-19T16:36:46.028Z,97832.33
2023-01-19T16:39:59.323Z,97833.17
2023-01-19T16:43:12.370Z,97831.95
2023-01-19T16:46:30.017Z,97837.27
2023-01-19T16:49:42.111Z,97840.96
2023-01-19T16:52:54.633Z,97840.73
2023-01-19T16:56:10.551Z,97837.99
2023-01-19T16:59:24.770Z,97852.64
2023-01-19T17:02:36.721Z,97846.37
2023-01-19T17:05:54.419Z,97849.83
2023-01-19T17:09:07.022Z,97849.30
2023-01-19T17:12:22.095Z,97832.77
2023-01-19T17:15:34.408Z,97849.30
2023-01-19T17:18:46.835Z,97848.45
2023-01-19T17:21:59.022Z,97844.07
2023-01-19T17:25:12.916Z,97853.48
2023-01-19T17:28:24.990Z,97861.45
2023-01-19T17:31:38.276Z,97865.84
2023-01-19T17:34:52.587Z,97871.06
2023-01-19T17:38:04.801Z,97876.50
2023-01-19T17:41:28.316Z,97874.84
2023-01-19T17:44:42.434Z,97879.84
2023-01-19T17:47:56.154Z,97879.84
2023-01-19T17:51:12.901Z,97872.95
2023-01-19T17:54:25.481Z,97878.19
2023-01-19T17:57:37.478Z,97881.00
2023-01-19T18:00:49.805Z,97880.07
2023-01-19T18:04:02.779Z,97875.69
2023-01-19T18:07:15.061Z,97878.39
2023-01-19T18:10:27.247Z,97880.07
2023-01-19T18:13:39.840Z,97879.34
2023-01-19T18:16:52.346Z,97877.69
2023-01-19T18:20:05.586Z,97880.30
2023-01-19T18:23:18.097Z,97881.00
2023-01-19T18:26:30.504Z,97878.39
2023-01-19T18:29:42.920Z,97874.84
2023-01-19T18:32:55.732Z,97880.39
2023-01-19T18:36:08.574Z,97886.34
2023-01-19T18:39:20.775Z,97890.84
2023-01-19T18:42:33.490Z,97885.30
2023-01-19T18:45:45.896Z,97888.84
2023-01-19T18:48:58.192Z,97880.19
2023-01-19T18:52:11.215Z,97876.73
2023-01-19T18:55:24.265Z,97883.61
2023-01-19T18:58:37.694Z,97880.30
2023-01-19T19:01:49.991Z,97876.95
2023-01-19T19:05:02.961Z,97870.27
2023-01-19T19:08:15.690Z,97888.46
2023-01-19T19:11:29.737Z,97911.27
2023-01-19T19:14:42.438Z,97916.61
2023-01-19T19:17:54.687Z,97922.66
2023-01-19T19:21:09.719Z,97930.41
2023-01-19T19:24:22.411Z,97946.10
2023-01-19T19:27:35.669Z,97957.18
2023-01-19T19:30:49.888Z,97950.38
2023-01-19T19:34:03.633Z,97949.64
2023-01-19T19:37:16.067Z,97952.38
2023-01-19T19:40:29.406Z,97947.03
2023-01-19T19:43:43.134Z,97957.48
2023-01-19T19:46:55.379Z,97967.02
2023-01-19T19:50:07.668Z,97980.09
2023-01-19T19:53:20.050Z,97987.63
2023-01-19T19:56:34.955Z,97983.31
2023-01-19T19:59:47.331Z,97991.16
2023-01-19T20:02:59.700Z,98012.08
2023-01-19T20:06:16.049Z,98016.69
2023-01-19T20:09:28.404Z,98026.92
2023-01-19T20:12:40.513Z,98027.11
2023-01-19T20:15:53.733Z,98035.17
2023-01-19T20:19:06.824Z,98034.63
2023-01-19T20:22:19.334Z,98034.44
2023-01-19T20:25:32.564Z,98036.94
2023-01-19T20:28:45.423Z,98051.78
2023-01-19T20:32:00.458Z,98055.34
2023-01-19T20:35:15.428Z,98060.76
2023-01-19T20:38:28.173Z,98071.43
2023-01-19T20:41:43.310Z,98068.52
2023-01-19T20:44:55.840Z,98069.55
2023-01-19T20:48:08.091Z,98066.94
2023-01-19T20:51:21.211Z,98069.55
2023-01-19T20:54:34.389Z,98067.46
2023-01-19T20:57:46.650Z,98070.30
2023-01-19T21:00:59.095Z,98070.19
2023-01-19T21:04:12.759Z,98074.78
2023-01-19T21:07:25.051Z,98075.70
2023-01-19T21:10:37.884Z,98065.98
2023-01-19T21:13:51.759Z,98056.27
2023-01-19T21:17:03.842Z,98058.88
2023-01-19T21:20:19.370Z,98059.84
2023-01-19T21:23:32.971Z,98065.59
2023-01-19T21:26:45.946Z,98081.27
2023-01-19T21:29:58.821Z,98087.23
2023-01-19T21:33:10.959Z,98089.84
2023-01-19T21:36:23.866Z,98099.56
2023-01-19T21:39:36.039Z,98113.03
2023-01-19T21:42:48.204Z,98123.48
2023-01-19T21:46:00.323Z,98124.44
2023-01-19T21:49:16.764Z,98128.92
2023-01-19T21:52:28.831Z,98139.38
2023-01-19T21:55:41.490Z,98137.51
2023-01-19T21:58:54.524Z,98128.92
2023-01-19T22:02:06.967Z,98130.59
2023-01-19T22:05:20.653Z,98144.05
2023-01-19T22:08:33.415Z,98149.84
2023-01-19T22:11:45.524Z,98137.51
2023-01-19T22:14:58.465Z,98141.05
2023-01-19T22:18:10.768Z,98147.11
2023-01-19T22:21:25.965Z,98156.94
2023-01-19T22:24:38.059Z,98157.11
2023-01-19T22:27:50.103Z,98157.86
2023-01-19T22:31:10.523Z,98165.70
2023-01-19T22:34:24.593Z,98172.41
2023-01-19T22:37:40.566Z,98175.02
2023-01-19T22:40:54.073Z,98171.59
2023-01-19T22:44:09.064Z,98174.09
2023-01-19T22:47:21.981Z,98172.23
2023-01-19T22:50:34.694Z,98179.33
2023-01-19T22:53:46.838Z,98182.05
2023-01-19T22:57:01.890Z,98182.22
2023-01-19T23:00:17.873Z,98188.19
2023-01-19T23:03:30.616Z,98200.41
2023-01-19T23:06:46.454Z,98196.03
2023-01-19T23:09:58.443Z,98200.41
2023-01-19T23:13:10.362Z,98215.17
2023-01-19T23:16:22.933Z,98213.41
2023-01-19T23:19:35.082Z,98217.78
2023-01-19T23:22:47.211Z,98222.27
2023-01-19T23:25:59.184Z,98219.45
2023-01-19T23:29:14.761Z,98222.06
2023-01-19T23:32:26.744Z,98220.19
2023-01-19T23:35:40.039Z,98221.89
2023-01-19T23:38:56.403Z,98225.52
2023-01-19T23:42:08.808Z,98224.67
2023-01-19T23:45:21.258Z,98224.67
2023-01-19T23:48:33.144Z,98218.81
2023-01-19T23:51:47.188Z,98227.39
2023-01-19T23:54:59.218Z,98228.24
2023-01-19T23:58:11.329Z,98233.26
